sensor_id;sensor_type;location;lat;lon;timestamp;P1;durP1;ratioP1;P2;durP2;ratioP2
61899;SDS011;47853;55.890;37.664;2023-11-19T00:00:33;34.10;;;17.30;;
61899;SDS011;47853;55.890;37.664;2023-11-19T00:02:58;45.72;;;20.02;;
61899;SDS011;47853;55.890;37.664;2023-11-19T00:05:24;42.38;;;18.63;;
61899;SDS011;47853;55.890;37.664;2023-11-19T00:07:49;42.90;;;17.50;;
61899;SDS011;47853;55.890;37.664;2023-11-19T00:10:15;40.53;;;17.70;;
61899;SDS011;47853;55.890;37.664;2023-11-19T00:12:41;39.60;;;18.83;;
61899;SDS011;47853;55.890;37.664;2023-11-19T00:15:07;46.30;;;20.00;;
61899;SDS011;47853;55.890;37.664;2023-11-19T00:17:33;41.47;;;18.75;;
61899;SDS011;47853;55.890;37.664;2023-11-19T00:19:58;37.30;;;18.38;;
61899;SDS011;47853;55.890;37.664;2023-11-19T00:22:24;38.30;;;17.63;;
61899;SDS011;47853;55.890;37.664;2023-11-19T00:24:49;37.50;;;16.58;;
61899;SDS011;47853;55.890;37.664;2023-11-19T00:27:14;31.05;;;12.25;;
61899;SDS011;47853;55.890;37.664;2023-11-19T00:29:40;26.92;;;12.82;;
61899;SDS011;47853;55.890;37.664;2023-11-19T00:32:05;34.00;;;15.13;;
61899;SDS011;47853;55.890;37.664;2023-11-19T00:34:31;32.25;;;14.15;;
61899;SDS011;47853;55.890;37.664;2023-11-19T00:36:56;24.48;;;12.63;;
61899;SDS011;47853;55.890;37.664;2023-11-19T00:39:21;22.05;;;10.68;;
61899;SDS011;47853;55.890;37.664;2023-11-19T00:41:47;20.13;;;10.25;;
61899;SDS011;47853;55.890;37.664;2023-11-19T00:44:12;22.40;;;9.70;;
61899;SDS011;47853;55.890;37.664;2023-11-19T00:46:37;21.23;;;9.88;;
61899;SDS011;47853;55.890;37.664;2023-11-19T00:49:03;25.63;;;10.88;;
61899;SDS011;47853;55.890;37.664;2023-11-19T00:51:28;23.25;;;12.40;;
61899;SDS011;47853;55.890;37.664;2023-11-19T00:53:54;28.80;;;13.25;;
61899;SDS011;47853;55.890;37.664;2023-11-19T00:56:19;17.95;;;9.73;;
61899;SDS011;47853;55.890;37.664;2023-11-19T00:58:45;25.77;;;11.02;;
61899;SDS011;47853;55.890;37.664;2023-11-19T01:01:13;32.53;;;13.65;;
61899;SDS011;47853;55.890;37.664;2023-11-19T01:03:38;26.98;;;11.70;;
61899;SDS011;47853;55.890;37.664;2023-11-19T01:06:04;19.75;;;9.90;;
61899;SDS011;47853;55.890;37.664;2023-11-19T01:08:29;20.48;;;8.30;;
61899;SDS011;47853;55.890;37.664;2023-11-19T01:10:55;25.63;;;9.57;;
61899;SDS011;47853;55.890;37.664;2023-11-19T01:13:20;21.23;;;9.90;;
61899;SDS011;47853;55.890;37.664;2023-11-19T01:15:45;21.05;;;10.68;;
61899;SDS011;47853;55.890;37.664;2023-11-19T01:18:11;47.00;;;19.30;;
61899;SDS011;47853;55.890;37.664;2023-11-19T01:20:36;27.73;;;9.68;;
61899;SDS011;47853;55.890;37.664;2023-11-19T01:23:02;48.25;;;18.77;;
61899;SDS011;47853;55.890;37.664;2023-11-19T01:25:27;43.42;;;19.05;;
61899;SDS011;47853;55.890;37.664;2023-11-19T01:27:53;39.10;;;19.00;;
61899;SDS011;47853;55.890;37.664;2023-11-19T01:30:18;38.03;;;18.73;;
61899;SDS011;47853;55.890;37.664;2023-11-19T01:32:43;44.33;;;18.90;;
61899;SDS011;47853;55.890;37.664;2023-11-19T01:35:09;40.80;;;19.30;;
61899;SDS011;47853;55.890;37.664;2023-11-19T01:37:34;35.72;;;17.55;;
61899;SDS011;47853;55.890;37.664;2023-11-19T01:40:00;37.72;;;17.63;;
61899;SDS011;47853;55.890;37.664;2023-11-19T01:42:25;31.55;;;17.40;;
61899;SDS011;47853;55.890;37.664;2023-11-19T01:44:57;40.55;;;16.95;;
61899;SDS011;47853;55.890;37.664;2023-11-19T01:47:23;43.08;;;17.15;;
61899;SDS011;47853;55.890;37.664;2023-11-19T01:49:49;37.30;;;16.15;;
61899;SDS011;47853;55.890;37.664;2023-11-19T01:52:15;39.55;;;17.77;;
61899;SDS011;47853;55.890;37.664;2023-11-19T01:54:41;38.38;;;19.80;;
61899;SDS011;47853;55.890;37.664;2023-11-19T01:57:07;38.30;;;18.00;;
61899;SDS011;47853;55.890;37.664;2023-11-19T01:59:34;38.80;;;20.70;;
61899;SDS011;47853;55.890;37.664;2023-11-19T02:01:59;41.33;;;20.33;;
61899;SDS011;47853;55.890;37.664;2023-11-19T02:04:25;57.92;;;22.67;;
61899;SDS011;47853;55.890;37.664;2023-11-19T02:06:50;55.53;;;24.70;;
61899;SDS011;47853;55.890;37.664;2023-11-19T02:09:18;54.83;;;25.25;;
61899;SDS011;47853;55.890;37.664;2023-11-19T02:11:44;49.53;;;24.17;;
61899;SDS011;47853;55.890;37.664;2023-11-19T02:14:10;48.28;;;20.92;;
61899;SDS011;47853;55.890;37.664;2023-11-19T02:16:35;34.67;;;19.13;;
61899;SDS011;47853;55.890;37.664;2023-11-19T02:19:01;39.63;;;19.58;;
61899;SDS011;47853;55.890;37.664;2023-11-19T02:21:26;45.38;;;19.95;;
61899;SDS011;47853;55.890;37.664;2023-11-19T02:23:52;41.80;;;19.63;;
61899;SDS011;47853;55.890;37.664;2023-11-19T02:26:20;39.83;;;20.45;;
61899;SDS011;47853;55.890;37.664;2023-11-19T02:28:55;40.80;;;18.33;;
61899;SDS011;47853;55.890;37.664;2023-11-19T02:31:21;43.45;;;20.55;;
61899;SDS011;47853;55.890;37.664;2023-11-19T02:33:46;44.13;;;20.40;;
61899;SDS011;47853;55.890;37.664;2023-11-19T02:36:12;40.72;;;20.63;;
61899;SDS011;47853;55.890;37.664;2023-11-19T02:38:37;39.60;;;19.95;;
61899;SDS011;47853;55.890;37.664;2023-11-19T02:41:03;41.03;;;19.80;;
61899;SDS011;47853;55.890;37.664;2023-11-19T02:43:28;36.72;;;18.20;;
61899;SDS011;47853;55.890;37.664;2023-11-19T02:45:54;32.97;;;17.40;;
61899;SDS011;47853;55.890;37.664;2023-11-19T02:48:19;41.58;;;18.60;;
61899;SDS011;47853;55.890;37.664;2023-11-19T02:50:44;31.75;;;17.75;;
61899;SDS011;47853;55.890;37.664;2023-11-19T02:53:10;41.40;;;18.50;;
61899;SDS011;47853;55.890;37.664;2023-11-19T02:55:35;43.50;;;19.17;;
61899;SDS011;47853;55.890;37.664;2023-11-19T02:58:01;43.97;;;18.65;;
61899;SDS011;47853;55.890;37.664;2023-11-19T03:00:26;43.35;;;17.70;;
61899;SDS011;47853;55.890;37.664;2023-11-19T03:02:52;32.45;;;18.08;;
61899;SDS011;47853;55.890;37.664;2023-11-19T03:05:17;41.88;;;18.67;;
61899;SDS011;47853;55.890;37.664;2023-11-19T03:07:43;40.15;;;18.48;;
61899;SDS011;47853;55.890;37.664;2023-11-19T03:10:09;46.55;;;21.05;;
61899;SDS011;47853;55.890;37.664;2023-11-19T03:12:35;38.83;;;21.05;;
61899;SDS011;47853;55.890;37.664;2023-11-19T03:15:00;43.40;;;19.38;;
61899;SDS011;47853;55.890;37.664;2023-11-19T03:17:26;41.53;;;19.88;;
61899;SDS011;47853;55.890;37.664;2023-11-19T03:19:51;48.70;;;19.92;;
61899;SDS011;47853;55.890;37.664;2023-11-19T03:22:16;41.33;;;18.83;;
61899;SDS011;47853;55.890;37.664;2023-11-19T03:24:42;45.38;;;20.55;;
61899;SDS011;47853;55.890;37.664;2023-11-19T03:27:07;43.92;;;18.85;;
61899;SDS011;47853;55.890;37.664;2023-11-19T03:29:33;41.35;;;17.73;;
61899;SDS011;47853;55.890;37.664;2023-11-19T03:31:58;43.42;;;18.58;;
61899;SDS011;47853;55.890;37.664;2023-11-19T03:34:23;35.28;;;18.45;;
61899;SDS011;47853;55.890;37.664;2023-11-19T03:36:49;36.90;;;18.92;;
61899;SDS011;47853;55.890;37.664;2023-11-19T03:39:14;39.50;;;20.60;;
61899;SDS011;47853;55.890;37.664;2023-11-19T03:41:39;34.05;;;18.13;;
61899;SDS011;47853;55.890;37.664;2023-11-19T03:44:05;41.50;;;17.27;;
61899;SDS011;47853;55.890;37.664;2023-11-19T03:46:30;35.15;;;15.98;;
61899;SDS011;47853;55.890;37.664;2023-11-19T03:48:56;36.65;;;15.75;;
61899;SDS011;47853;55.890;37.664;2023-11-19T03:51:21;35.15;;;15.65;;
61899;SDS011;47853;55.890;37.664;2023-11-19T03:53:46;44.45;;;18.45;;
61899;SDS011;47853;55.890;37.664;2023-11-19T03:56:12;38.00;;;17.60;;
61899;SDS011;47853;55.890;37.664;2023-11-19T03:58:38;36.78;;;15.38;;
61899;SDS011;47853;55.890;37.664;2023-11-19T04:01:04;30.85;;;16.25;;
61899;SDS011;47853;55.890;37.664;2023-11-19T04:03:30;30.90;;;16.65;;
61899;SDS011;47853;55.890;37.664;2023-11-19T04:05:56;28.83;;;15.57;;
61899;SDS011;47853;55.890;37.664;2023-11-19T04:08:21;36.17;;;15.35;;
61899;SDS011;47853;55.890;37.664;2023-11-19T04:10:47;32.65;;;16.65;;
61899;SDS011;47853;55.890;37.664;2023-11-19T04:13:13;38.38;;;15.85;;
61899;SDS011;47853;55.890;37.664;2023-11-19T04:15:38;31.48;;;16.05;;
61899;SDS011;47853;55.890;37.664;2023-11-19T04:18:03;29.77;;;14.02;;
61899;SDS011;47853;55.890;37.664;2023-11-19T04:20:29;25.38;;;12.38;;
61899;SDS011;47853;55.890;37.664;2023-11-19T04:22:54;23.80;;;11.85;;
61899;SDS011;47853;55.890;37.664;2023-11-19T04:25:19;22.08;;;12.27;;
61899;SDS011;47853;55.890;37.664;2023-11-19T04:27:45;21.08;;;11.20;;
61899;SDS011;47853;55.890;37.664;2023-11-19T04:30:10;21.85;;;12.07;;
61899;SDS011;47853;55.890;37.664;2023-11-19T04:32:36;24.00;;;11.88;;
61899;SDS011;47853;55.890;37.664;2023-11-19T04:35:02;26.70;;;11.90;;
61899;SDS011;47853;55.890;37.664;2023-11-19T04:37:27;25.02;;;11.68;;
61899;SDS011;47853;55.890;37.664;2023-11-19T04:39:52;18.98;;;9.38;;
61899;SDS011;47853;55.890;37.664;2023-11-19T04:42:18;24.02;;;11.45;;
61899;SDS011;47853;55.890;37.664;2023-11-19T04:44:43;21.40;;;11.07;;
61899;SDS011;47853;55.890;37.664;2023-11-19T04:47:09;19.77;;;10.00;;
61899;SDS011;47853;55.890;37.664;2023-11-19T04:49:34;22.55;;;9.23;;
61899;SDS011;47853;55.890;37.664;2023-11-19T04:51:59;17.83;;;10.68;;
61899;SDS011;47853;55.890;37.664;2023-11-19T04:54:25;18.58;;;9.15;;
61899;SDS011;47853;55.890;37.664;2023-11-19T04:56:50;21.55;;;10.40;;
61899;SDS011;47853;55.890;37.664;2023-11-19T04:59:15;18.13;;;10.55;;
61899;SDS011;47853;55.890;37.664;2023-11-19T05:01:41;26.20;;;11.43;;
61899;SDS011;47853;55.890;37.664;2023-11-19T05:04:07;20.05;;;11.55;;
61899;SDS011;47853;55.890;37.664;2023-11-19T05:06:32;24.83;;;10.10;;
61899;SDS011;47853;55.890;37.664;2023-11-19T05:09:00;26.10;;;12.13;;
61899;SDS011;47853;55.890;37.664;2023-11-19T05:11:26;23.63;;;10.77;;
61899;SDS011;47853;55.890;37.664;2023-11-19T05:13:51;21.60;;;11.05;;
61899;SDS011;47853;55.890;37.664;2023-11-19T05:16:17;22.58;;;11.27;;
61899;SDS011;47853;55.890;37.664;2023-11-19T05:18:42;28.63;;;11.38;;
61899;SDS011;47853;55.890;37.664;2023-11-19T05:21:07;23.55;;;10.52;;
61899;SDS011;47853;55.890;37.664;2023-11-19T05:23:33;26.38;;;11.40;;
61899;SDS011;47853;55.890;37.664;2023-11-19T05:25:59;19.42;;;10.48;;
61899;SDS011;47853;55.890;37.664;2023-11-19T05:28:26;24.42;;;12.95;;
61899;SDS011;47853;55.890;37.664;2023-11-19T05:30:51;18.25;;;10.70;;
61899;SDS011;47853;55.890;37.664;2023-11-19T05:33:16;23.80;;;11.85;;
61899;SDS011;47853;55.890;37.664;2023-11-19T05:35:42;34.03;;;14.50;;
61899;SDS011;47853;55.890;37.664;2023-11-19T05:38:07;32.47;;;13.15;;
61899;SDS011;47853;55.890;37.664;2023-11-19T05:40:33;25.02;;;12.73;;
61899;SDS011;47853;55.890;37.664;2023-11-19T05:42:58;23.02;;;13.65;;
61899;SDS011;47853;55.890;37.664;2023-11-19T05:45:23;30.17;;;12.32;;
61899;SDS011;47853;55.890;37.664;2023-11-19T05:47:49;25.88;;;12.68;;
61899;SDS011;47853;55.890;37.664;2023-11-19T05:50:23;30.10;;;13.73;;
61899;SDS011;47853;55.890;37.664;2023-11-19T05:52:49;32.10;;;13.32;;
61899;SDS011;47853;55.890;37.664;2023-11-19T05:55:14;21.85;;;12.68;;
61899;SDS011;47853;55.890;37.664;2023-11-19T05:57:40;24.58;;;12.90;;
61899;SDS011;47853;55.890;37.664;2023-11-19T06:00:05;26.92;;;13.43;;
61899;SDS011;47853;55.890;37.664;2023-11-19T06:02:34;28.38;;;14.95;;
61899;SDS011;47853;55.890;37.664;2023-11-19T06:05:00;28.92;;;14.48;;
61899;SDS011;47853;55.890;37.664;2023-11-19T06:07:26;32.50;;;14.27;;
61899;SDS011;47853;55.890;37.664;2023-11-19T06:09:51;29.75;;;13.15;;
61899;SDS011;47853;55.890;37.664;2023-11-19T06:12:17;30.83;;;13.98;;
61899;SDS011;47853;55.890;37.664;2023-11-19T06:14:42;25.88;;;13.98;;
61899;SDS011;47853;55.890;37.664;2023-11-19T06:17:07;35.03;;;15.45;;
61899;SDS011;47853;55.890;37.664;2023-11-19T06:19:33;21.90;;;11.70;;
61899;SDS011;47853;55.890;37.664;2023-11-19T06:21:58;23.27;;;12.88;;
61899;SDS011;47853;55.890;37.664;2023-11-19T06:24:24;32.00;;;14.02;;
61899;SDS011;47853;55.890;37.664;2023-11-19T06:26:50;28.25;;;15.55;;
61899;SDS011;47853;55.890;37.664;2023-11-19T06:29:15;30.77;;;14.00;;
61899;SDS011;47853;55.890;37.664;2023-11-19T06:31:41;29.45;;;14.27;;
61899;SDS011;47853;55.890;37.664;2023-11-19T06:34:07;31.70;;;14.43;;
61899;SDS011;47853;55.890;37.664;2023-11-19T06:36:35;28.83;;;14.50;;
61899;SDS011;47853;55.890;37.664;2023-11-19T06:39:00;26.50;;;12.55;;
61899;SDS011;47853;55.890;37.664;2023-11-19T06:41:26;30.10;;;13.30;;
61899;SDS011;47853;55.890;37.664;2023-11-19T06:43:52;29.58;;;13.02;;
61899;SDS011;47853;55.890;37.664;2023-11-19T06:46:18;23.50;;;13.80;;
61899;SDS011;47853;55.890;37.664;2023-11-19T06:48:44;32.67;;;13.93;;
61899;SDS011;47853;55.890;37.664;2023-11-19T06:51:10;28.80;;;14.45;;
61899;SDS011;47853;55.890;37.664;2023-11-19T06:53:36;24.05;;;14.15;;
61899;SDS011;47853;55.890;37.664;2023-11-19T06:56:01;26.92;;;13.10;;
61899;SDS011;47853;55.890;37.664;2023-11-19T06:58:27;24.85;;;14.57;;
61899;SDS011;47853;55.890;37.664;2023-11-19T07:00:53;30.67;;;13.07;;
61899;SDS011;47853;55.890;37.664;2023-11-19T07:03:18;25.88;;;13.48;;
61899;SDS011;47853;55.890;37.664;2023-11-19T07:05:43;20.45;;;12.77;;
61899;SDS011;47853;55.890;37.664;2023-11-19T07:08:09;30.02;;;12.85;;
61899;SDS011;47853;55.890;37.664;2023-11-19T07:10:34;22.98;;;12.55;;
61899;SDS011;47853;55.890;37.664;2023-11-19T07:12:59;27.48;;;13.60;;
61899;SDS011;47853;55.890;37.664;2023-11-19T07:15:25;21.90;;;12.80;;
61899;SDS011;47853;55.890;37.664;2023-11-19T07:17:50;50.05;;;14.07;;
61899;SDS011;47853;55.890;37.664;2023-11-19T07:20:16;23.58;;;11.90;;
61899;SDS011;47853;55.890;37.664;2023-11-19T07:22:44;30.30;;;12.60;;
61899;SDS011;47853;55.890;37.664;2023-11-19T07:25:09;23.85;;;12.15;;
61899;SDS011;47853;55.890;37.664;2023-11-19T07:27:35;23.42;;;13.93;;
61899;SDS011;47853;55.890;37.664;2023-11-19T07:30:00;25.30;;;13.13;;
61899;SDS011;47853;55.890;37.664;2023-11-19T07:32:25;23.15;;;13.38;;
61899;SDS011;47853;55.890;37.664;2023-11-19T07:34:51;22.13;;;13.07;;
61899;SDS011;47853;55.890;37.664;2023-11-19T07:37:16;26.23;;;11.40;;
61899;SDS011;47853;55.890;37.664;2023-11-19T07:42:27;32.70;;;15.63;;
61899;SDS011;47853;55.890;37.664;2023-11-19T07:45:16;27.58;;;15.63;;
61899;SDS011;47853;55.890;37.664;2023-11-19T07:47:42;27.27;;;14.68;;
61899;SDS011;47853;55.890;37.664;2023-11-19T07:50:07;34.47;;;17.13;;
61899;SDS011;47853;55.890;37.664;2023-11-19T07:52:33;23.80;;;14.80;;
61899;SDS011;47853;55.890;37.664;2023-11-19T07:54:59;32.70;;;14.80;;
61899;SDS011;47853;55.890;37.664;2023-11-19T07:57:24;24.95;;;13.90;;
61899;SDS011;47853;55.890;37.664;2023-11-19T07:59:49;27.60;;;13.18;;
61899;SDS011;47853;55.890;37.664;2023-11-19T08:02:15;25.10;;;12.43;;
61899;SDS011;47853;55.890;37.664;2023-11-19T08:04:40;33.42;;;14.48;;
61899;SDS011;47853;55.890;37.664;2023-11-19T08:07:05;37.75;;;13.30;;
61899;SDS011;47853;55.890;37.664;2023-11-19T08:09:31;22.45;;;11.85;;
61899;SDS011;47853;55.890;37.664;2023-11-19T08:11:56;29.70;;;12.90;;
61899;SDS011;47853;55.890;37.664;2023-11-19T08:14:21;27.00;;;12.80;;
61899;SDS011;47853;55.890;37.664;2023-11-19T08:16:47;26.52;;;12.63;;
61899;SDS011;47853;55.890;37.664;2023-11-19T08:19:12;27.58;;;12.63;;
61899;SDS011;47853;55.890;37.664;2023-11-19T08:21:38;28.65;;;13.10;;
61899;SDS011;47853;55.890;37.664;2023-11-19T08:24:03;24.45;;;12.68;;
61899;SDS011;47853;55.890;37.664;2023-11-19T08:26:29;28.88;;;12.98;;
61899;SDS011;47853;55.890;37.664;2023-11-19T08:28:54;31.13;;;13.65;;
61899;SDS011;47853;55.890;37.664;2023-11-19T08:31:19;25.92;;;14.25;;
61899;SDS011;47853;55.890;37.664;2023-11-19T08:33:45;34.90;;;13.85;;
61899;SDS011;47853;55.890;37.664;2023-11-19T08:36:16;32.85;;;14.05;;
61899;SDS011;47853;55.890;37.664;2023-11-19T08:38:44;21.77;;;12.60;;
61899;SDS011;47853;55.890;37.664;2023-11-19T08:41:10;27.80;;;14.38;;
61899;SDS011;47853;55.890;37.664;2023-11-19T08:43:35;27.02;;;14.65;;
61899;SDS011;47853;55.890;37.664;2023-11-19T08:46:01;27.48;;;13.40;;
61899;SDS011;47853;55.890;37.664;2023-11-19T08:48:26;25.05;;;12.57;;
61899;SDS011;47853;55.890;37.664;2023-11-19T08:50:51;26.85;;;14.27;;
61899;SDS011;47853;55.890;37.664;2023-11-19T08:53:17;24.05;;;14.18;;
61899;SDS011;47853;55.890;37.664;2023-11-19T08:55:42;33.00;;;13.95;;
61899;SDS011;47853;55.890;37.664;2023-11-19T08:58:07;28.65;;;13.45;;
61899;SDS011;47853;55.890;37.664;2023-11-19T09:00:33;27.92;;;13.40;;
61899;SDS011;47853;55.890;37.664;2023-11-19T09:02:58;25.23;;;11.77;;
61899;SDS011;47853;55.890;37.664;2023-11-19T09:05:24;20.48;;;11.10;;
61899;SDS011;47853;55.890;37.664;2023-11-19T09:07:49;22.65;;;13.55;;
61899;SDS011;47853;55.890;37.664;2023-11-19T09:10:15;24.25;;;13.20;;
61899;SDS011;47853;55.890;37.664;2023-11-19T09:12:40;22.70;;;11.93;;
61899;SDS011;47853;55.890;37.664;2023-11-19T09:15:06;25.50;;;14.27;;
61899;SDS011;47853;55.890;37.664;2023-11-19T09:17:31;28.45;;;13.90;;
61899;SDS011;47853;55.890;37.664;2023-11-19T09:19:57;24.08;;;12.32;;
61899;SDS011;47853;55.890;37.664;2023-11-19T09:22:22;18.55;;;10.63;;
61899;SDS011;47853;55.890;37.664;2023-11-19T09:24:48;37.42;;;16.35;;
61899;SDS011;47853;55.890;37.664;2023-11-19T09:27:13;19.45;;;12.55;;
61899;SDS011;47853;55.890;37.664;2023-11-19T09:29:38;27.90;;;15.77;;
61899;SDS011;47853;55.890;37.664;2023-11-19T09:32:04;24.15;;;12.38;;
61899;SDS011;47853;55.890;37.664;2023-11-19T09:34:30;22.60;;;11.77;;
61899;SDS011;47853;55.890;37.664;2023-11-19T09:36:55;30.85;;;14.15;;
61899;SDS011;47853;55.890;37.664;2023-11-19T09:39:20;22.17;;;12.85;;
61899;SDS011;47853;55.890;37.664;2023-11-19T09:41:46;28.67;;;13.55;;
61899;SDS011;47853;55.890;37.664;2023-11-19T09:44:14;24.50;;;12.25;;
61899;SDS011;47853;55.890;37.664;2023-11-19T09:46:41;23.63;;;12.93;;
61899;SDS011;47853;55.890;37.664;2023-11-19T09:49:07;25.88;;;13.75;;
61899;SDS011;47853;55.890;37.664;2023-11-19T09:51:35;27.58;;;12.20;;
61899;SDS011;47853;55.890;37.664;2023-11-19T09:54:01;22.60;;;11.48;;
61899;SDS011;47853;55.890;37.664;2023-11-19T09:56:27;22.90;;;13.20;;
61899;SDS011;47853;55.890;37.664;2023-11-19T09:58:54;19.90;;;11.23;;
61899;SDS011;47853;55.890;37.664;2023-11-19T10:01:20;25.70;;;12.90;;
61899;SDS011;47853;55.890;37.664;2023-11-19T10:03:46;27.58;;;13.05;;
61899;SDS011;47853;55.890;37.664;2023-11-19T10:06:12;32.58;;;13.48;;
61899;SDS011;47853;55.890;37.664;2023-11-19T10:08:39;31.70;;;15.10;;
61899;SDS011;47853;55.890;37.664;2023-11-19T10:11:06;27.75;;;13.15;;
61899;SDS011;47853;55.890;37.664;2023-11-19T10:13:33;25.48;;;12.57;;
61899;SDS011;47853;55.890;37.664;2023-11-19T10:16:03;23.30;;;12.20;;
61899;SDS011;47853;55.890;37.664;2023-11-19T10:18:42;20.60;;;12.65;;
61899;SDS011;47853;55.890;37.664;2023-11-19T10:21:11;28.38;;;13.25;;
61899;SDS011;47853;55.890;37.664;2023-11-19T10:23:54;19.45;;;12.15;;
61899;SDS011;47853;55.890;37.664;2023-11-19T10:26:20;24.80;;;14.45;;
61899;SDS011;47853;55.890;37.664;2023-11-19T10:28:46;27.42;;;14.65;;
61899;SDS011;47853;55.890;37.664;2023-11-19T10:31:13;24.20;;;13.30;;
61899;SDS011;47853;55.890;37.664;2023-11-19T10:33:39;21.80;;;11.68;;
61899;SDS011;47853;55.890;37.664;2023-11-19T10:36:04;24.60;;;14.25;;
61899;SDS011;47853;55.890;37.664;2023-11-19T10:38:30;25.85;;;15.50;;
61899;SDS011;47853;55.890;37.664;2023-11-19T10:40:55;26.00;;;13.60;;
61899;SDS011;47853;55.890;37.664;2023-11-19T10:43:21;29.52;;;14.07;;
61899;SDS011;47853;55.890;37.664;2023-11-19T10:45:47;21.38;;;11.70;;
61899;SDS011;47853;55.890;37.664;2023-11-19T10:48:19;25.67;;;14.48;;
61899;SDS011;47853;55.890;37.664;2023-11-19T10:50:44;23.70;;;12.60;;
61899;SDS011;47853;55.890;37.664;2023-11-19T10:53:14;26.23;;;14.25;;
61899;SDS011;47853;55.890;37.664;2023-11-19T10:55:40;27.85;;;12.35;;
61899;SDS011;47853;55.890;37.664;2023-11-19T10:58:05;21.27;;;12.80;;
61899;SDS011;47853;55.890;37.664;2023-11-19T11:00:54;23.00;;;13.18;;
61899;SDS011;47853;55.890;37.664;2023-11-19T11:03:21;19.25;;;11.80;;
61899;SDS011;47853;55.890;37.664;2023-11-19T11:05:49;17.92;;;11.57;;
61899;SDS011;47853;55.890;37.664;2023-11-19T11:08:16;26.33;;;13.60;;
61899;SDS011;47853;55.890;37.664;2023-11-19T11:10:43;17.98;;;11.38;;
61899;SDS011;47853;55.890;37.664;2023-11-19T11:13:16;23.98;;;12.25;;
61899;SDS011;47853;55.890;37.664;2023-11-19T11:15:47;22.08;;;12.38;;
61899;SDS011;47853;55.890;37.664;2023-11-19T11:18:14;24.23;;;13.30;;
61899;SDS011;47853;55.890;37.664;2023-11-19T11:20:40;27.20;;;12.30;;
61899;SDS011;47853;55.890;37.664;2023-11-19T11:28:44;23.02;;;12.00;;
61899;SDS011;47853;55.890;37.664;2023-11-19T11:34:15;20.50;;;11.57;;
61899;SDS011;47853;55.890;37.664;2023-11-19T11:39:34;35.10;;;12.55;;
61899;SDS011;47853;55.890;37.664;2023-11-19T11:50:11;22.83;;;12.15;;
61899;SDS011;47853;55.890;37.664;2023-11-19T11:55:34;21.52;;;9.80;;
61899;SDS011;47853;55.890;37.664;2023-11-19T11:58:02;18.33;;;10.55;;
61899;SDS011;47853;55.890;37.664;2023-11-19T12:00:37;19.88;;;11.38;;
61899;SDS011;47853;55.890;37.664;2023-11-19T12:03:04;23.17;;;12.35;;
61899;SDS011;47853;55.890;37.664;2023-11-19T12:05:31;21.02;;;11.38;;
61899;SDS011;47853;55.890;37.664;2023-11-19T12:08:00;18.08;;;10.75;;
61899;SDS011;47853;55.890;37.664;2023-11-19T12:10:29;18.45;;;11.35;;
61899;SDS011;47853;55.890;37.664;2023-11-19T12:12:58;18.25;;;10.00;;
61899;SDS011;47853;55.890;37.664;2023-11-19T12:15:24;24.95;;;10.82;;
61899;SDS011;47853;55.890;37.664;2023-11-19T12:17:49;25.58;;;12.02;;
61899;SDS011;47853;55.890;37.664;2023-11-19T12:20:16;23.02;;;11.48;;
61899;SDS011;47853;55.890;37.664;2023-11-19T12:22:43;20.75;;;11.45;;
61899;SDS011;47853;55.890;37.664;2023-11-19T12:25:10;18.20;;;10.50;;
61899;SDS011;47853;55.890;37.664;2023-11-19T12:27:36;21.42;;;11.68;;
61899;SDS011;47853;55.890;37.664;2023-11-19T12:30:06;25.23;;;12.00;;
61899;SDS011;47853;55.890;37.664;2023-11-19T12:32:45;21.33;;;10.43;;
61899;SDS011;47853;55.890;37.664;2023-11-19T12:35:11;21.88;;;10.60;;
61899;SDS011;47853;55.890;37.664;2023-11-19T12:37:41;21.17;;;10.63;;
61899;SDS011;47853;55.890;37.664;2023-11-19T12:40:24;20.10;;;10.32;;
61899;SDS011;47853;55.890;37.664;2023-11-19T12:42:53;25.05;;;11.45;;
61899;SDS011;47853;55.890;37.664;2023-11-19T12:45:20;22.65;;;10.38;;
61899;SDS011;47853;55.890;37.664;2023-11-19T12:47:46;33.53;;;11.23;;
61899;SDS011;47853;55.890;37.664;2023-11-19T12:50:12;22.98;;;10.25;;
61899;SDS011;47853;55.890;37.664;2023-11-19T12:52:37;18.38;;;10.75;;
61899;SDS011;47853;55.890;37.664;2023-11-19T12:55:45;21.05;;;10.18;;
61899;SDS011;47853;55.890;37.664;2023-11-19T12:57:54;22.65;;;10.77;;
61899;SDS011;47853;55.890;37.664;2023-11-19T13:00:24;21.80;;;12.15;;
61899;SDS011;47853;55.890;37.664;2023-11-19T13:02:51;16.58;;;10.52;;
61899;SDS011;47853;55.890;37.664;2023-11-19T13:07:59;17.83;;;10.30;;
61899;SDS011;47853;55.890;37.664;2023-11-19T13:10:28;27.27;;;11.32;;
61899;SDS011;47853;55.890;37.664;2023-11-19T13:13:05;24.42;;;10.48;;
61899;SDS011;47853;55.890;37.664;2023-11-19T13:15:32;23.83;;;11.27;;
61899;SDS011;47853;55.890;37.664;2023-11-19T13:17:58;22.23;;;11.32;;
61899;SDS011;47853;55.890;37.664;2023-11-19T13:20:24;23.67;;;10.75;;
61899;SDS011;47853;55.890;37.664;2023-11-19T13:25:28;25.95;;;11.65;;
61899;SDS011;47853;55.890;37.664;2023-11-19T13:27:54;26.70;;;12.23;;
61899;SDS011;47853;55.890;37.664;2023-11-19T13:30:21;24.42;;;9.55;;
61899;SDS011;47853;55.890;37.664;2023-11-19T13:32:47;20.08;;;10.00;;
61899;SDS011;47853;55.890;37.664;2023-11-19T13:35:13;18.90;;;10.82;;
61899;SDS011;47853;55.890;37.664;2023-11-19T13:37:39;24.40;;;11.45;;
61899;SDS011;47853;55.890;37.664;2023-11-19T13:40:06;19.88;;;10.43;;
61899;SDS011;47853;55.890;37.664;2023-11-19T13:42:32;21.13;;;10.45;;
61899;SDS011;47853;55.890;37.664;2023-11-19T13:44:57;19.40;;;10.60;;
61899;SDS011;47853;55.890;37.664;2023-11-19T13:47:22;19.20;;;10.95;;
61899;SDS011;47853;55.890;37.664;2023-11-19T13:49:48;18.23;;;9.68;;
61899;SDS011;47853;55.890;37.664;2023-11-19T13:52:13;18.45;;;10.35;;
61899;SDS011;47853;55.890;37.664;2023-11-19T13:54:38;26.02;;;11.35;;
61899;SDS011;47853;55.890;37.664;2023-11-19T13:57:04;22.75;;;10.63;;
61899;SDS011;47853;55.890;37.664;2023-11-19T13:59:30;16.65;;;11.50;;
61899;SDS011;47853;55.890;37.664;2023-11-19T14:01:56;17.75;;;10.73;;
61899;SDS011;47853;55.890;37.664;2023-11-19T14:04:21;16.27;;;9.73;;
61899;SDS011;47853;55.890;37.664;2023-11-19T14:06:47;24.30;;;10.27;;
61899;SDS011;47853;55.890;37.664;2023-11-19T14:09:12;24.35;;;11.60;;
61899;SDS011;47853;55.890;37.664;2023-11-19T14:11:37;17.25;;;10.15;;
61899;SDS011;47853;55.890;37.664;2023-11-19T14:14:03;24.02;;;11.43;;
61899;SDS011;47853;55.890;37.664;2023-11-19T14:16:31;22.13;;;10.18;;
61899;SDS011;47853;55.890;37.664;2023-11-19T14:18:57;19.00;;;10.38;;
61899;SDS011;47853;55.890;37.664;2023-11-19T14:21:22;17.73;;;9.10;;
61899;SDS011;47853;55.890;37.664;2023-11-19T14:23:47;17.15;;;10.57;;
61899;SDS011;47853;55.890;37.664;2023-11-19T14:26:13;19.75;;;10.52;;
61899;SDS011;47853;55.890;37.664;2023-11-19T14:28:38;20.77;;;11.00;;
61899;SDS011;47853;55.890;37.664;2023-11-19T14:31:03;19.40;;;9.13;;
61899;SDS011;47853;55.890;37.664;2023-11-19T14:33:29;23.00;;;11.20;;